sensor_id;sensor_type;location;lat;lon;timestamp;P1;durP1;ratioP1;P2;durP2;ratioP2
19291;SDS011;9779;51.756;7.450;2023-10-19T00:01:06;5.03;;;3.77;;
19291;SDS011;9779;51.756;7.450;2023-10-19T00:03:35;3.90;;;3.60;;
19291;SDS011;9779;51.756;7.450;2023-10-19T00:06:01;4.23;;;3.60;;
19291;SDS011;9779;51.756;7.450;2023-10-19T00:08:26;4.20;;;3.90;;
19291;SDS011;9779;51.756;7.450;2023-10-19T00:11:01;4.17;;;3.87;;
19291;SDS011;9779;51.756;7.450;2023-10-19T00:13:27;4.27;;;3.97;;
19291;SDS011;9779;51.756;7.450;2023-10-19T00:15:54;4.07;;;3.77;;
19291;SDS011;9779;51.756;7.450;2023-10-19T00:18:22;3.60;;;3.30;;
19291;SDS011;9779;51.756;7.450;2023-10-19T00:20:52;4.30;;;3.90;;
19291;SDS011;9779;51.756;7.450;2023-10-19T00:23:20;3.83;;;3.63;;
19291;SDS011;9779;51.756;7.450;2023-10-19T00:26:00;4.67;;;3.90;;
19291;SDS011;9779;51.756;7.450;2023-10-19T00:28:33;3.97;;;3.63;;
19291;SDS011;9779;51.756;7.450;2023-10-19T00:31:00;4.13;;;3.93;;
19291;SDS011;9779;51.756;7.450;2023-10-19T00:33:29;3.87;;;3.57;;
19291;SDS011;9779;51.756;7.450;2023-10-19T00:35:58;4.10;;;3.80;;
19291;SDS011;9779;51.756;7.450;2023-10-19T00:38:31;3.70;;;3.40;;
19291;SDS011;9779;51.756;7.450;2023-10-19T00:41:03;3.97;;;3.67;;
19291;SDS011;9779;51.756;7.450;2023-10-19T00:43:36;6.53;;;3.87;;
19291;SDS011;9779;51.756;7.450;2023-10-19T00:46:08;4.40;;;4.10;;
19291;SDS011;9779;51.756;7.450;2023-10-19T00:48:56;5.27;;;4.00;;
19291;SDS011;9779;51.756;7.450;2023-10-19T00:51:26;5.10;;;3.50;;
19291;SDS011;9779;51.756;7.450;2023-10-19T00:56:46;6.00;;;3.90;;
19291;SDS011;9779;51.756;7.450;2023-10-19T00:59:18;4.43;;;4.13;;
19291;SDS011;9779;51.756;7.450;2023-10-19T01:01:55;4.30;;;4.00;;
19291;SDS011;9779;51.756;7.450;2023-10-19T01:04:41;4.03;;;3.73;;
19291;SDS011;9779;51.756;7.450;2023-10-19T01:07:10;4.30;;;4.00;;
19291;SDS011;9779;51.756;7.450;2023-10-19T01:09:47;4.10;;;3.90;;
19291;SDS011;9779;51.756;7.450;2023-10-19T01:12:12;4.80;;;4.50;;
19291;SDS011;9779;51.756;7.450;2023-10-19T01:15:06;4.10;;;3.80;;
19291;SDS011;9779;51.756;7.450;2023-10-19T01:17:38;4.03;;;3.80;;
19291;SDS011;9779;51.756;7.450;2023-10-19T01:22:58;6.10;;;4.13;;
19291;SDS011;9779;51.756;7.450;2023-10-19T01:25:44;4.40;;;4.10;;
19291;SDS011;9779;51.756;7.450;2023-10-19T01:28:26;4.50;;;4.07;;
19291;SDS011;9779;51.756;7.450;2023-10-19T01:31:05;4.97;;;4.57;;
19291;SDS011;9779;51.756;7.450;2023-10-19T01:33:31;5.97;;;4.73;;
19291;SDS011;9779;51.756;7.450;2023-10-19T01:35:59;4.37;;;4.07;;
19291;SDS011;9779;51.756;7.450;2023-10-19T01:38:40;3.60;;;3.30;;
19291;SDS011;9779;51.756;7.450;2023-10-19T01:41:07;4.73;;;4.43;;
19291;SDS011;9779;51.756;7.450;2023-10-19T01:43:43;4.53;;;4.10;;
19291;SDS011;9779;51.756;7.450;2023-10-19T01:46:11;4.43;;;4.03;;
19291;SDS011;9779;51.756;7.450;2023-10-19T01:48:39;4.97;;;4.67;;
19291;SDS011;9779;51.756;7.450;2023-10-19T01:51:09;4.43;;;4.20;;
19291;SDS011;9779;51.756;7.450;2023-10-19T01:53:36;4.80;;;4.50;;
19291;SDS011;9779;51.756;7.450;2023-10-19T01:56:09;4.87;;;4.53;;
19291;SDS011;9779;51.756;7.450;2023-10-19T01:58:42;4.50;;;4.07;;
19291;SDS011;9779;51.756;7.450;2023-10-19T02:01:12;4.27;;;3.97;;
19291;SDS011;9779;51.756;7.450;2023-10-19T02:03:39;4.53;;;4.13;;
19291;SDS011;9779;51.756;7.450;2023-10-19T02:06:07;4.80;;;4.40;;
19291;SDS011;9779;51.756;7.450;2023-10-19T02:08:49;5.30;;;5.00;;
19291;SDS011;9779;51.756;7.450;2023-10-19T02:11:24;4.50;;;4.20;;
19291;SDS011;9779;51.756;7.450;2023-10-19T02:13:52;4.57;;;4.17;;
19291;SDS011;9779;51.756;7.450;2023-10-19T02:16:20;4.50;;;4.20;;
19291;SDS011;9779;51.756;7.450;2023-10-19T02:18:49;4.63;;;4.33;;
19291;SDS011;9779;51.756;7.450;2023-10-19T02:21:16;4.60;;;4.20;;
19291;SDS011;9779;51.756;7.450;2023-10-19T02:23:52;4.80;;;4.40;;
19291;SDS011;9779;51.756;7.450;2023-10-19T02:26:18;4.93;;;4.63;;
19291;SDS011;9779;51.756;7.450;2023-10-19T02:28:47;4.80;;;4.30;;
19291;SDS011;9779;51.756;7.450;2023-10-19T02:31:16;5.03;;;4.73;;
19291;SDS011;9779;51.756;7.450;2023-10-19T02:33:49;5.87;;;4.20;;
19291;SDS011;9779;51.756;7.450;2023-10-19T02:36:17;4.57;;;4.27;;
19291;SDS011;9779;51.756;7.450;2023-10-19T02:38:45;4.70;;;4.23;;
19291;SDS011;9779;51.756;7.450;2023-10-19T02:41:16;4.93;;;4.63;;
19291;SDS011;9779;51.756;7.450;2023-10-19T02:43:43;4.13;;;3.83;;
19291;SDS011;9779;51.756;7.450;2023-10-19T02:46:15;5.47;;;4.43;;
19291;SDS011;9779;51.756;7.450;2023-10-19T02:48:43;4.97;;;4.50;;
19291;SDS011;9779;51.756;7.450;2023-10-19T02:51:15;4.17;;;3.77;;
19291;SDS011;9779;51.756;7.450;2023-10-19T02:53:40;4.53;;;4.23;;
19291;SDS011;9779;51.756;7.450;2023-10-19T02:56:14;4.27;;;4.07;;
19291;SDS011;9779;51.756;7.450;2023-10-19T02:58:48;4.63;;;4.33;;
19291;SDS011;9779;51.756;7.450;2023-10-19T03:01:21;8.03;;;4.33;;
19291;SDS011;9779;51.756;7.450;2023-10-19T03:03:52;4.27;;;4.03;;
19291;SDS011;9779;51.756;7.450;2023-10-19T03:06:20;5.53;;;4.80;;
19291;SDS011;9779;51.756;7.450;2023-10-19T03:08:46;4.40;;;4.10;;
19291;SDS011;9779;51.756;7.450;2023-10-19T03:11:13;4.33;;;4.03;;
19291;SDS011;9779;51.756;7.450;2023-10-19T03:13:40;4.07;;;3.87;;
19291;SDS011;9779;51.756;7.450;2023-10-19T03:16:06;4.13;;;3.93;;
19291;SDS011;9779;51.756;7.450;2023-10-19T03:18:33;5.87;;;4.53;;
19291;SDS011;9779;51.756;7.450;2023-10-19T03:21:03;4.40;;;4.20;;
19291;SDS011;9779;51.756;7.450;2023-10-19T03:23:28;3.90;;;3.70;;
19291;SDS011;9779;51.756;7.450;2023-10-19T03:25:55;4.37;;;4.10;;
19291;SDS011;9779;51.756;7.450;2023-10-19T03:28:40;4.70;;;4.40;;
19291;SDS011;9779;51.756;7.450;2023-10-19T03:31:06;3.67;;;3.47;;
19291;SDS011;9779;51.756;7.450;2023-10-19T03:33:32;5.13;;;4.47;;
19291;SDS011;9779;51.756;7.450;2023-10-19T03:36:01;4.60;;;4.30;;
19291;SDS011;9779;51.756;7.450;2023-10-19T03:38:28;4.03;;;3.83;;
19291;SDS011;9779;51.756;7.450;2023-10-19T03:40:56;4.23;;;3.93;;
19291;SDS011;9779;51.756;7.450;2023-10-19T03:43:31;4.60;;;4.40;;
19291;SDS011;9779;51.756;7.450;2023-10-19T03:45:57;3.97;;;3.67;;
19291;SDS011;9779;51.756;7.450;2023-10-19T03:48:24;3.83;;;3.63;;
19291;SDS011;9779;51.756;7.450;2023-10-19T03:50:55;3.97;;;3.77;;
19291;SDS011;9779;51.756;7.450;2023-10-19T03:53:22;5.03;;;4.50;;
19291;SDS011;9779;51.756;7.450;2023-10-19T03:55:48;4.40;;;4.10;;
19291;SDS011;9779;51.756;7.450;2023-10-19T03:58:19;4.37;;;4.07;;
19291;SDS011;9779;51.756;7.450;2023-10-19T04:00:46;4.00;;;3.80;;
19291;SDS011;9779;51.756;7.450;2023-10-19T04:03:14;4.43;;;4.23;;
19291;SDS011;9779;51.756;7.450;2023-10-19T04:05:42;4.07;;;3.87;;
19291;SDS011;9779;51.756;7.450;2023-10-19T04:08:11;3.53;;;3.33;;
19291;SDS011;9779;51.756;7.450;2023-10-19T04:10:45;4.30;;;3.90;;
19291;SDS011;9779;51.756;7.450;2023-10-19T04:13:33;4.83;;;4.53;;
19291;SDS011;9779;51.756;7.450;2023-10-19T04:16:00;4.20;;;3.90;;
19291;SDS011;9779;51.756;7.450;2023-10-19T04:18:26;4.97;;;4.67;;
19291;SDS011;9779;51.756;7.450;2023-10-19T04:20:52;4.17;;;3.97;;
19291;SDS011;9779;51.756;7.450;2023-10-19T04:23:18;4.63;;;4.43;;
19291;SDS011;9779;51.756;7.450;2023-10-19T04:25:45;4.33;;;4.13;;
19291;SDS011;9779;51.756;7.450;2023-10-19T04:28:11;5.87;;;5.27;;
19291;SDS011;9779;51.756;7.450;2023-10-19T04:30:40;5.80;;;5.40;;
19291;SDS011;9779;51.756;7.450;2023-10-19T04:33:06;8.83;;;8.03;;
19291;SDS011;9779;51.756;7.450;2023-10-19T04:35:35;6.30;;;5.80;;
19291;SDS011;9779;51.756;7.450;2023-10-19T04:38:03;6.77;;;6.17;;
19291;SDS011;9779;51.756;7.450;2023-10-19T04:40:32;6.33;;;5.10;;
19291;SDS011;9779;51.756;7.450;2023-10-19T04:42:58;4.77;;;4.47;;
19291;SDS011;9779;51.756;7.450;2023-10-19T04:45:26;4.90;;;4.60;;
19291;SDS011;9779;51.756;7.450;2023-10-19T04:47:52;4.27;;;4.03;;
19291;SDS011;9779;51.756;7.450;2023-10-19T04:50:19;4.37;;;4.03;;
19291;SDS011;9779;51.756;7.450;2023-10-19T04:52:45;5.00;;;4.07;;
19291;SDS011;9779;51.756;7.450;2023-10-19T04:55:11;4.10;;;3.67;;
19291;SDS011;9779;51.756;7.450;2023-10-19T04:57:36;4.27;;;4.07;;
19291;SDS011;9779;51.756;7.450;2023-10-19T05:00:02;3.50;;;3.30;;
19291;SDS011;9779;51.756;7.450;2023-10-19T05:02:28;3.27;;;3.10;;
19291;SDS011;9779;51.756;7.450;2023-10-19T05:04:54;5.60;;;3.30;;
19291;SDS011;9779;51.756;7.450;2023-10-19T05:07:20;3.20;;;2.87;;
19291;SDS011;9779;51.756;7.450;2023-10-19T05:09:46;3.30;;;3.00;;
19291;SDS011;9779;51.756;7.450;2023-10-19T05:12:12;5.73;;;3.27;;
19291;SDS011;9779;51.756;7.450;2023-10-19T05:14:39;3.27;;;3.00;;
19291;SDS011;9779;51.756;7.450;2023-10-19T05:17:06;3.27;;;3.00;;
19291;SDS011;9779;51.756;7.450;2023-10-19T05:19:34;5.13;;;2.50;;
19291;SDS011;9779;51.756;7.450;2023-10-19T05:22:01;2.60;;;2.40;;
19291;SDS011;9779;51.756;7.450;2023-10-19T05:24:27;2.90;;;2.53;;
19291;SDS011;9779;51.756;7.450;2023-10-19T05:26:54;3.43;;;3.00;;
19291;SDS011;9779;51.756;7.450;2023-10-19T05:29:20;3.90;;;3.00;;
19291;SDS011;9779;51.756;7.450;2023-10-19T05:31:46;5.23;;;2.50;;
19291;SDS011;9779;51.756;7.450;2023-10-19T05:34:12;2.63;;;2.43;;
19291;SDS011;9779;51.756;7.450;2023-10-19T05:36:38;4.90;;;2.80;;
19291;SDS011;9779;51.756;7.450;2023-10-19T05:39:08;8.43;;;7.63;;
19291;SDS011;9779;51.756;7.450;2023-10-19T05:41:34;4.43;;;4.03;;
19291;SDS011;9779;51.756;7.450;2023-10-19T05:44:00;3.33;;;3.13;;
19291;SDS011;9779;51.756;7.450;2023-10-19T05:46:26;2.33;;;2.23;;
19291;SDS011;9779;51.756;7.450;2023-10-19T05:48:54;3.00;;;2.67;;
19291;SDS011;9779;51.756;7.450;2023-10-19T05:51:21;2.40;;;2.20;;
19291;SDS011;9779;51.756;7.450;2023-10-19T05:53:47;2.67;;;2.47;;
19291;SDS011;9779;51.756;7.450;2023-10-19T05:56:13;2.63;;;2.43;;
19291;SDS011;9779;51.756;7.450;2023-10-19T05:58:41;5.67;;;2.40;;
19291;SDS011;9779;51.756;7.450;2023-10-19T06:01:07;2.50;;;2.27;;
19291;SDS011;9779;51.756;7.450;2023-10-19T06:03:32;2.50;;;2.30;;
19291;SDS011;9779;51.756;7.450;2023-10-19T06:05:58;2.43;;;2.33;;
19291;SDS011;9779;51.756;7.450;2023-10-19T06:08:23;2.90;;;2.53;;
19291;SDS011;9779;51.756;7.450;2023-10-19T06:10:52;4.83;;;3.20;;
19291;SDS011;9779;51.756;7.450;2023-10-19T06:13:18;3.63;;;2.60;;
19291;SDS011;9779;51.756;7.450;2023-10-19T06:15:44;3.27;;;2.97;;
19291;SDS011;9779;51.756;7.450;2023-10-19T06:18:10;3.30;;;3.00;;
19291;SDS011;9779;51.756;7.450;2023-10-19T06:20:36;3.30;;;3.10;;
19291;SDS011;9779;51.756;7.450;2023-10-19T06:23:02;3.00;;;2.77;;
19291;SDS011;9779;51.756;7.450;2023-10-19T06:25:32;3.20;;;2.23;;
19291;SDS011;9779;51.756;7.450;2023-10-19T06:28:00;2.30;;;2.00;;
19291;SDS011;9779;51.756;7.450;2023-10-19T06:30:26;4.40;;;2.43;;
19291;SDS011;9779;51.756;7.450;2023-10-19T06:32:56;2.33;;;2.17;;
19291;SDS011;9779;51.756;7.450;2023-10-19T06:35:26;3.60;;;2.27;;
19291;SDS011;9779;51.756;7.450;2023-10-19T06:37:53;2.47;;;2.27;;
19291;SDS011;9779;51.756;7.450;2023-10-19T06:40:23;2.57;;;2.07;;
19291;SDS011;9779;51.756;7.450;2023-10-19T06:42:51;2.47;;;2.27;;
19291;SDS011;9779;51.756;7.450;2023-10-19T06:45:21;6.10;;;5.63;;
19291;SDS011;9779;51.756;7.450;2023-10-19T06:47:47;3.10;;;2.90;;
19291;SDS011;9779;51.756;7.450;2023-10-19T06:50:15;4.43;;;2.33;;
19291;SDS011;9779;51.756;7.450;2023-10-19T06:52:42;2.60;;;2.40;;
19291;SDS011;9779;51.756;7.450;2023-10-19T06:55:09;2.87;;;2.60;;
19291;SDS011;9779;51.756;7.450;2023-10-19T06:57:41;3.80;;;2.47;;
19291;SDS011;9779;51.756;7.450;2023-10-19T07:00:09;1.97;;;1.87;;
19291;SDS011;9779;51.756;7.450;2023-10-19T07:02:53;2.80;;;2.20;;
19291;SDS011;9779;51.756;7.450;2023-10-19T07:05:20;3.67;;;1.80;;
19291;SDS011;9779;51.756;7.450;2023-10-19T07:07:48;4.70;;;2.00;;
19291;SDS011;9779;51.756;7.450;2023-10-19T07:10:16;2.37;;;2.03;;
19291;SDS011;9779;51.756;7.450;2023-10-19T07:12:44;2.20;;;2.00;;
19291;SDS011;9779;51.756;7.450;2023-10-19T07:15:11;4.20;;;2.53;;
19291;SDS011;9779;51.756;7.450;2023-10-19T07:17:40;3.10;;;2.47;;
19291;SDS011;9779;51.756;7.450;2023-10-19T07:20:07;6.00;;;2.47;;
19291;SDS011;9779;51.756;7.450;2023-10-19T07:22:46;6.10;;;2.20;;
19291;SDS011;9779;51.756;7.450;2023-10-19T07:25:12;4.33;;;2.47;;
19291;SDS011;9779;51.756;7.450;2023-10-19T07:27:38;2.60;;;2.00;;
19291;SDS011;9779;51.756;7.450;2023-10-19T07:30:06;3.33;;;2.50;;
19291;SDS011;9779;51.756;7.450;2023-10-19T07:32:34;4.40;;;2.23;;
19291;SDS011;9779;51.756;7.450;2023-10-19T07:35:00;2.40;;;2.17;;
19291;SDS011;9779;51.756;7.450;2023-10-19T07:37:26;6.50;;;2.33;;
19291;SDS011;9779;51.756;7.450;2023-10-19T07:39:52;7.43;;;1.70;;
19291;SDS011;9779;51.756;7.450;2023-10-19T07:42:22;4.57;;;2.03;;
19291;SDS011;9779;51.756;7.450;2023-10-19T07:44:47;2.90;;;2.60;;
19291;SDS011;9779;51.756;7.450;2023-10-19T07:47:14;3.10;;;2.00;;
19291;SDS011;9779;51.756;7.450;2023-10-19T07:49:39;2.57;;;2.03;;
19291;SDS011;9779;51.756;7.450;2023-10-19T07:52:05;3.30;;;2.37;;
19291;SDS011;9779;51.756;7.450;2023-10-19T07:54:32;5.50;;;2.50;;
19291;SDS011;9779;51.756;7.450;2023-10-19T07:57:02;4.13;;;1.70;;
19291;SDS011;9779;51.756;7.450;2023-10-19T07:59:31;3.07;;;2.77;;
19291;SDS011;9779;51.756;7.450;2023-10-19T08:01:57;2.17;;;1.97;;
19291;SDS011;9779;51.756;7.450;2023-10-19T08:04:26;3.87;;;2.27;;
19291;SDS011;9779;51.756;7.450;2023-10-19T08:06:52;3.53;;;2.53;;
19291;SDS011;9779;51.756;7.450;2023-10-19T08:09:18;2.50;;;2.30;;
19291;SDS011;9779;51.756;7.450;2023-10-19T08:11:48;2.20;;;1.67;;
19291;SDS011;9779;51.756;7.450;2023-10-19T08:14:14;6.57;;;2.10;;
19291;SDS011;9779;51.756;7.450;2023-10-19T08:16:39;3.37;;;1.87;;
19291;SDS011;9779;51.756;7.450;2023-10-19T08:19:06;4.13;;;2.60;;
19291;SDS011;9779;51.756;7.450;2023-10-19T08:21:32;5.43;;;4.30;;
19291;SDS011;9779;51.756;7.450;2023-10-19T08:23:59;3.60;;;3.13;;
19291;SDS011;9779;51.756;7.450;2023-10-19T08:26:29;5.60;;;2.27;;
19291;SDS011;9779;51.756;7.450;2023-10-19T08:28:55;3.97;;;2.20;;
19291;SDS011;9779;51.756;7.450;2023-10-19T08:31:23;3.80;;;2.70;;
19291;SDS011;9779;51.756;7.450;2023-10-19T08:33:49;2.27;;;2.07;;
19291;SDS011;9779;51.756;7.450;2023-10-19T08:36:18;2.20;;;2.00;;
19291;SDS011;9779;51.756;7.450;2023-10-19T08:38:45;2.23;;;1.87;;
19291;SDS011;9779;51.756;7.450;2023-10-19T08:41:11;7.17;;;2.17;;
19291;SDS011;9779;51.756;7.450;2023-10-19T08:43:39;4.67;;;2.63;;
19291;SDS011;9779;51.756;7.450;2023-10-19T08:46:05;5.23;;;2.63;;
19291;SDS011;9779;51.756;7.450;2023-10-19T08:48:36;2.13;;;1.97;;
19291;SDS011;9779;51.756;7.450;2023-10-19T08:51:08;2.47;;;2.27;;
19291;SDS011;9779;51.756;7.450;2023-10-19T08:53:36;4.03;;;2.77;;
19291;SDS011;9779;51.756;7.450;2023-10-19T08:56:05;2.97;;;2.20;;
19291;SDS011;9779;51.756;7.450;2023-10-19T08:58:33;8.00;;;2.37;;
19291;SDS011;9779;51.756;7.450;2023-10-19T09:00:59;3.63;;;2.50;;
19291;SDS011;9779;51.756;7.450;2023-10-19T09:03:31;4.13;;;2.23;;
19291;SDS011;9779;51.756;7.450;2023-10-19T09:06:00;3.77;;;3.13;;
19291;SDS011;9779;51.756;7.450;2023-10-19T09:08:30;6.73;;;2.90;;
19291;SDS011;9779;51.756;7.450;2023-10-19T09:11:08;2.40;;;2.20;;
19291;SDS011;9779;51.756;7.450;2023-10-19T09:13:43;4.93;;;2.60;;
19291;SDS011;9779;51.756;7.450;2023-10-19T09:16:15;2.50;;;2.20;;
19291;SDS011;9779;51.756;7.450;2023-10-19T09:18:42;6.77;;;2.40;;
19291;SDS011;9779;51.756;7.450;2023-10-19T09:21:09;1.57;;;1.43;;
19291;SDS011;9779;51.756;7.450;2023-10-19T09:23:49;3.10;;;2.03;;
19291;SDS011;9779;51.756;7.450;2023-10-19T09:26:15;2.87;;;1.90;;
19291;SDS011;9779;51.756;7.450;2023-10-19T09:28:41;2.80;;;1.90;;
19291;SDS011;9779;51.756;7.450;2023-10-19T09:31:07;4.83;;;2.40;;
19291;SDS011;9779;51.756;7.450;2023-10-19T09:33:34;3.63;;;2.13;;
19291;SDS011;9779;51.756;7.450;2023-10-19T09:36:03;2.77;;;2.53;;
19291;SDS011;9779;51.756;7.450;2023-10-19T09:38:30;6.70;;;2.23;;
19291;SDS011;9779;51.756;7.450;2023-10-19T09:40:58;2.53;;;2.30;;
19291;SDS011;9779;51.756;7.450;2023-10-19T09:46:07;5.93;;;2.40;;
19291;SDS011;9779;51.756;7.450;2023-10-19T09:48:35;4.57;;;2.13;;
19291;SDS011;9779;51.756;7.450;2023-10-19T09:51:06;3.13;;;1.70;;
19291;SDS011;9779;51.756;7.450;2023-10-19T09:53:34;2.10;;;1.90;;
19291;SDS011;9779;51.756;7.450;2023-10-19T09:56:00;3.83;;;2.17;;
19291;SDS011;9779;51.756;7.450;2023-10-19T09:58:31;3.50;;;2.10;;
19291;SDS011;9779;51.756;7.450;2023-10-19T10:01:02;3.57;;;1.83;;
19291;SDS011;9779;51.756;7.450;2023-10-19T10:06:17;2.57;;;2.37;;
19291;SDS011;9779;51.756;7.450;2023-10-19T10:08:55;2.93;;;2.37;;
19291;SDS011;9779;51.756;7.450;2023-10-19T10:11:24;5.30;;;2.33;;
19291;SDS011;9779;51.756;7.450;2023-10-19T10:13:56;4.83;;;4.37;;
19291;SDS011;9779;51.756;7.450;2023-10-19T10:18:54;2.60;;;2.10;;
19291;SDS011;9779;51.756;7.450;2023-10-19T10:21:24;3.37;;;2.10;;
19291;SDS011;9779;51.756;7.450;2023-10-19T10:23:53;7.97;;;1.60;;
19291;SDS011;9779;51.756;7.450;2023-10-19T10:26:21;2.63;;;1.77;;
19291;SDS011;9779;51.756;7.450;2023-10-19T10:29:12;2.23;;;2.03;;
19291;SDS011;9779;51.756;7.450;2023-10-19T10:31:48;2.53;;;1.70;;
19291;SDS011;9779;51.756;7.450;2023-10-19T10:37:02;4.87;;;1.73;;
19291;SDS011;9779;51.756;7.450;2023-10-19T10:39:33;2.20;;;1.77;;
19291;SDS011;9779;51.756;7.450;2023-10-19T10:42:03;2.73;;;1.80;;
19291;SDS011;9779;51.756;7.450;2023-10-19T10:45:03;7.70;;;2.17;;
19291;SDS011;9779;51.756;7.450;2023-10-19T10:47:22;3.57;;;1.50;;
19291;SDS011;9779;51.756;7.450;2023-10-19T10:49:58;7.83;;;1.40;;
19291;SDS011;9779;51.756;7.450;2023-10-19T10:55:09;5.03;;;2.10;;
19291;SDS011;9779;51.756;7.450;2023-10-19T10:57:36;3.63;;;1.37;;
19291;SDS011;9779;51.756;7.450;2023-10-19T11:00:13;1.83;;;1.20;;
19291;SDS011;9779;51.756;7.450;2023-10-19T11:02:59;4.60;;;2.67;;
19291;SDS011;9779;51.756;7.450;2023-10-19T11:05:29;3.77;;;1.70;;
19291;SDS011;9779;51.756;7.450;2023-10-19T11:10:28;3.10;;;1.70;;
19291;SDS011;9779;51.756;7.450;2023-10-19T11:13:01;5.37;;;1.60;;
19291;SDS011;9779;51.756;7.450;2023-10-19T11:15:34;4.93;;;1.30;;
19291;SDS011;9779;51.756;7.450;2023-10-19T11:18:02;2.80;;;1.40;;
19291;SDS011;9779;51.756;7.450;2023-10-19T11:20:29;3.03;;;1.10;;
19291;SDS011;9779;51.756;7.450;2023-10-19T11:22:55;3.60;;;1.40;;
19291;SDS011;9779;51.756;7.450;2023-10-19T11:25:25;3.77;;;1.20;;
19291;SDS011;9779;51.756;7.450;2023-10-19T11:27:59;2.87;;;1.27;;
19291;SDS011;9779;51.756;7.450;2023-10-19T11:30:27;3.30;;;1.13;;
19291;SDS011;9779;51.756;7.450;2023-10-19T11:32:54;4.23;;;1.10;;
19291;SDS011;9779;51.756;7.450;2023-10-19T11:35:33;8.03;;;1.73;;
19291;SDS011;9779;51.756;7.450;2023-10-19T11:38:00;3.57;;;1.30;;
19291;SDS011;9779;51.756;7.450;2023-10-19T11:40:27;3.07;;;1.27;;
19291;SDS011;9779;51.756;7.450;2023-10-19T11:42:53;5.57;;;1.20;;
19291;SDS011;9779;51.756;7.450;2023-10-19T11:45:23;3.63;;;1.10;;
19291;SDS011;9779;51.756;7.450;2023-10-19T11:47:49;2.80;;;1.10;;
19291;SDS011;9779;51.756;7.450;2023-10-19T11:50:15;2.63;;;1.60;;
19291;SDS011;9779;51.756;7.450;2023-10-19T11:52:43;2.80;;;1.80;;
19291;SDS011;9779;51.756;7.450;2023-10-19T11:55:10;6.03;;;1.60;;
19291;SDS011;9779;51.756;7.450;2023-10-19T11:57:38;4.30;;;1.90;;
19291;SDS011;9779;51.756;7.450;2023-10-19T12:00:05;3.03;;;1.30;;
19291;SDS011;9779;51.756;7.450;2023-10-19T12:02:37;6.63;;;1.50;;
19291;SDS011;9779;51.756;7.450;2023-10-19T12:05:06;7.97;;;1.10;;
19291;SDS011;9779;51.756;7.450;2023-10-19T12:07:38;3.93;;;1.17;;
19291;SDS011;9779;51.756;7.450;2023-10-19T12:10:05;3.33;;;1.80;;
19291;SDS011;9779;51.756;7.450;2023-10-19T12:12:33;4.27;;;1.47;;
19291;SDS011;9779;51.756;7.450;2023-10-19T12:14:59;4.57;;;1.47;;
19291;SDS011;9779;51.756;7.450;2023-10-19T12:17:25;3.70;;;1.20;;
19291;SDS011;9779;51.756;7.450;2023-10-19T12:19:55;5.37;;;2.07;;
19291;SDS011;9779;51.756;7.450;2023-10-19T12:22:22;5.97;;;1.33;;
19291;SDS011;9779;51.756;7.450;2023-10-19T12:24:49;7.63;;;1.83;;
19291;SDS011;9779;51.756;7.450;2023-10-19T12:27:16;3.23;;;1.27;;
19291;SDS011;9779;51.756;7.450;2023-10-19T12:29:42;5.40;;;1.33;;
19291;SDS011;9779;51.756;7.450;2023-10-19T12:32:09;11.37;;;1.60;;
19291;SDS011;9779;51.756;7.450;2023-10-19T12:34:34;3.77;;;1.10;;
19291;SDS011;9779;51.756;7.450;2023-10-19T12:37:00;3.53;;;1.53;;
19291;SDS011;9779;51.756;7.450;2023-10-19T12:39:27;3.87;;;1.30;;
19291;SDS011;9779;51.756;7.450;2023-10-19T12:42:08;5.57;;;1.47;;
19291;SDS011;9779;51.756;7.450;2023-10-19T12:44:34;10.87;;;1.83;;
19291;SDS011;9779;51.756;7.450;2023-10-19T12:47:09;4.23;;;1.80;;
19291;SDS011;9779;51.756;7.450;2023-10-19T12:49:38;5.63;;;1.17;;
19291;SDS011;9779;51.756;7.450;2023-10-19T12:52:05;6.97;;;1.57;;
19291;SDS011;9779;51.756;7.450;2023-10-19T12:54:35;2.97;;;1.47;;
19291;SDS011;9779;51.756;7.450;2023-10-19T12:57:02;3.10;;;1.10;;
19291;SDS011;9779;51.756;7.450;2023-10-19T12:59:34;9.67;;;1.83;;
19291;SDS011;9779;51.756;7.450;2023-10-19T13:02:04;5.63;;;2.30;;
19291;SDS011;9779;51.756;7.450;2023-10-19T13:04:33;5.50;;;2.27;;
19291;SDS011;9779;51.756;7.450;2023-10-19T13:06:59;5.37;;;2.07;;
19291;SDS011;9779;51.756;7.450;2023-10-19T13:09:27;3.40;;;1.87;;
19291;SDS011;9779;51.756;7.450;2023-10-19T13:11:59;4.30;;;1.60;;
19291;SDS011;9779;51.756;7.450;2023-10-19T13:14:26;9.27;;;2.07;;
19291;SDS011;9779;51.756;7.450;2023-10-19T13:16:52;3.57;;;1.10;;
19291;SDS011;9779;51.756;7.450;2023-10-19T13:19:19;5.50;;;1.40;;
19291;SDS011;9779;51.756;7.450;2023-10-19T13:21:51;6.17;;;1.37;;
19291;SDS011;9779;51.756;7.450;2023-10-19T13:24:20;6.10;;;1.80;;
19291;SDS011;9779;51.756;7.450;2023-10-19T13:26:46;5.20;;;2.53;;
19291;SDS011;9779;51.756;7.450;2023-10-19T13:29:13;4.97;;;1.70;;
19291;SDS011;9779;51.756;7.450;2023-10-19T13:31:40;4.27;;;1.47;;
19291;SDS011;9779;51.756;7.450;2023-10-19T13:34:06;6.47;;;1.87;;
19291;SDS011;9779;51.756;7.450;2023-10-19T13:36:35;4.17;;;1.53;;
19291;SDS011;9779;51.756;7.450;2023-10-19T13:39:01;3.80;;;1.17;;
19291;SDS011;9779;51.756;7.450;2023-10-19T13:41:28;2.53;;;1.30;;
19291;SDS011;9779;51.756;7.450;2023-10-19T13:43:54;4.73;;;1.73;;
19291;SDS011;9779;51.756;7.450;2023-10-19T13:46:20;2.43;;;1.40;;
19291;SDS011;9779;51.756;7.450;2023-10-19T13:48:48;9.00;;;1.57;;
19291;SDS011;9779;51.756;7.450;2023-10-19T13:51:15;6.73;;;2.10;;
19291;SDS011;9779;51.756;7.450;2023-10-19T13:53:44;3.87;;;1.77;;
19291;SDS011;9779;51.756;7.450;2023-10-19T13:56:10;3.13;;;1.67;;
19291;SDS011;9779;51.756;7.450;2023-10-19T13:58:39;5.00;;;1.53;;
19291;SDS011;9779;51.756;7.450;2023-10-19T14:01:08;9.07;;;1.60;;
19291;SDS011;9779;51.756;7.450;2023-10-19T14:03:35;2.93;;;1.50;;
19291;SDS011;9779;51.756;7.450;2023-10-19T14:06:02;4.37;;;1.20;;
19291;SDS011;9779;51.756;7.450;2023-10-19T14:08:28;3.77;;;1.10;;
19291;SDS011;9779;51.756;7.450;2023-10-19T14:11:00;8.77;;;1.80;;
19291;SDS011;9779;51.756;7.450;2023-10-19T14:13:26;1.87;;;1.40;;
19291;SDS011;9779;51.756;7.450;2023-10-19T14:15:52;4.47;;;2.13;;
19291;SDS011;9779;51.756;7.450;2023-10-19T14:18:17;5.53;;;1.90;;
19291;SDS011;9779;51.756;7.450;2023-10-19T14:20:43;4.17;;;1.90;;
19291;SDS011;9779;51.756;7.450;2023-10-19T14:23:09;5.13;;;1.83;;
19291;SDS011;9779;51.756;7.450;2023-10-19T14:25:36;5.73;;;1.60;;
19291;SDS011;9779;51.756;7.450;2023-10-19T14:28:07;2.47;;;1.43;;
19291;SDS011;9779;51.756;7.450;2023-10-19T14:30:34;8.77;;;1.40;;
19291;SDS011;9779;51.756;7.450;2023-10-19T14:33:00;3.33;;;1.43;;
19291;SDS011;9779;51.756;7.450;2023-10-19T14:35:26;5.43;;;1.80;;
19291;SDS011;9779;51.756;7.450;2023-10-19T14:37:52;5.40;;;4.90;;
19291;SDS011;9779;51.756;7.450;2023-10-19T14:40:25;6.97;;;4.20;;
19291;SDS011;9779;51.756;7.450;2023-10-19T14:42:53;6.40;;;2.77;;
19291;SDS011;9779;51.756;7.450;2023-10-19T14:45:19;3.37;;;2.13;;
19291;SDS011;9779;51.756;7.450;2023-10-19T14:47:49;3.03;;;2.40;;
19291;SDS011;9779;51.756;7.450;2023-10-19T14:50:19;3.43;;;1.97;;
19291;SDS011;9779;51.756;7.450;2023-10-19T14:52:46;4.07;;;1.83;;
19291;SDS011;9779;51.756;7.450;2023-10-19T14:55:13;5.33;;;1.67;;
19291;SDS011;9779;51.756;7.450;2023-10-19T14:57:41;4.20;;;1.93;;
19291;SDS011;9779;51.756;7.450;2023-10-19T15:00:08;6.17;;;1.43;;
19291;SDS011;9779;51.756;7.450;2023-10-19T15:02:46;5.47;;;1.63;;
19291;SDS011;9779;51.756;7.450;2023-10-19T15:05:16;8.23;;;2.00;;
19291;SDS011;9779;51.756;7.450;2023-10-19T15:07:42;4.07;;;1.93;;
19291;SDS011;9779;51.756;7.450;2023-10-19T15:10:10;4.93;;;2.03;;
19291;SDS011;9779;51.756;7.450;2023-10-19T15:12:39;5.00;;;1.73;;
19291;SDS011;9779;51.756;7.450;2023-10-19T15:15:08;5.13;;;2.20;;
19291;SDS011;9779;51.756;7.450;2023-10-19T15:17:34;3.33;;;1.67;;
19291;SDS011;9779;51.756;7.450;2023-10-19T15:20:03;3.57;;;1.70;;
19291;SDS011;9779;51.756;7.450;2023-10-19T15:22:35;4.77;;;1.57;;
19291;SDS011;9779;51.756;7.450;2023-10-19T15:25:01;7.73;;;2.43;;
19291;SDS011;9779;51.756;7.450;2023-10-19T15:27:26;4.57;;;1.70;;
19291;SDS011;9779;51.756;7.450;2023-10-19T15:29:54;5.50;;;1.90;;
19291;SDS011;9779;51.756;7.450;2023-10-19T15:32:21;7.33;;;1.80;;